Weather at Carrasco General Cesáreo L. Berisso International Airport

Public forecast

Using degrees Celsius for public forecast. Weather courtesy of forecast.io.

Current aviation weather report (METAR) for Carrasco General Cesáreo L. Berisso International Airport

2024/06/15 16:00 (retrieved 11 minutes ago)

SUMU 151600Z 17004KT CAVOK 17/12 Q1019 NOSIG

Aviation forecast (TAF) for Carrasco General Cesáreo L. Berisso International Airport

2024/06/15 12:39 (retrieved 4 hours ago)

TAF SUMU 151130Z 1512/1612 19005KT 0400 FG SCT002 TX17/1518Z TN09/1610Z BECMG 1512/1516 CAVOK TEMPO 1600/1612 3000 BR NSC PROB40 TEMPO 1603/1611 0600 FG BKN006